createdAt,value
2022-08-08T00:01:08.792Z,3.57
2022-08-08T00:03:49.482Z,4.30
2022-08-08T00:06:35.337Z,4.13
2022-08-08T00:09:15.708Z,4.13
2022-08-08T00:12:06.972Z,4.37
2022-08-08T00:14:47.954Z,2.07
2022-08-08T00:17:47.931Z,2.00
2022-08-08T00:20:24.587Z,2.77
2022-08-08T00:22:57.595Z,3.20
2022-08-08T00:25:44.815Z,2.77
2022-08-08T00:28:35.681Z,2.63
2022-08-08T00:32:21.005Z,1.57
2022-08-08T00:34:33.691Z,3.53
2022-08-08T00:37:45.180Z,5.40
2022-08-08T00:41:07.048Z,2.93
2022-08-08T00:43:58.823Z,3.53
2022-08-08T00:47:23.103Z,4.30
2022-08-08T00:50:53.403Z,2.87
2022-08-08T00:53:43.518Z,2.30
2022-08-08T00:57:34.493Z,1.60
2022-08-08T01:00:14.135Z,1.50
2022-08-08T01:04:00.015Z,1.83
2022-08-08T01:06:34.563Z,3.80
2022-08-08T01:09:48.767Z,2.47
2022-08-08T01:13:09.362Z,1.50
2022-08-08T01:16:20.026Z,4.80
2022-08-08T01:20:01.624Z,4.17
2022-08-08T01:23:08.063Z,2.87
2022-08-08T01:26:38.859Z,5.20
2022-08-08T01:29:59.458Z,4.53
2022-08-08T01:33:16.225Z,3.83
2022-08-08T01:36:19.398Z,2.83
2022-08-08T01:39:23.990Z,4.10
2022-08-08T01:42:05.148Z,3.03
2022-08-08T01:44:53.286Z,2.20
2022-08-08T01:48:27.561Z,2.27
2022-08-08T01:50:42.725Z,2.13
2022-08-08T01:55:17.606Z,3.77
2022-08-08T01:56:37.251Z,4.63
2022-08-08T01:59:22.739Z,3.27
2022-08-08T02:02:15.771Z,2.70
2022-08-08T02:05:14.237Z,2.87
2022-08-08T02:08:01.657Z,2.50
2022-08-08T02:10:46.085Z,2.33
2022-08-08T02:13:53.286Z,2.47
2022-08-08T02:16:21.320Z,3.03
2022-08-08T02:18:59.514Z,2.27
2022-08-08T02:21:56.403Z,1.90
2022-08-08T02:24:30.613Z,2.80
2022-08-08T02:27:07.524Z,6.57
2022-08-08T02:29:52.593Z,2.90
2022-08-08T02:32:36.618Z,3.03
2022-08-08T02:36:03.301Z,4.80
2022-08-08T02:38:48.961Z,2.13
2022-08-08T02:42:03.805Z,3.80
2022-08-08T02:45:18.650Z,1.87
2022-08-08T02:48:27.338Z,3.20
2022-08-08T02:51:55.039Z,2.70
2022-08-08T02:55:10.460Z,2.77
2022-08-08T02:58:28.651Z,3.73
2022-08-08T03:01:50.435Z,2.77
2022-08-08T03:05:04.991Z,2.63
2022-08-08T03:08:27.682Z,3.10
2022-08-08T03:12:01.210Z,3.67
2022-08-08T03:16:00.298Z,2.13
2022-08-08T03:17:59.779Z,2.83
2022-08-08T03:20:51.391Z,2.03
2022-08-08T03:23:22.461Z,2.30
2022-08-08T03:25:53.028Z,3.10
2022-08-08T03:28:28.553Z,5.13
2022-08-08T03:31:13.643Z,2.87
2022-08-08T03:33:56.683Z,3.77
2022-08-08T03:36:30.568Z,2.87
2022-08-08T03:39:15.198Z,2.87
2022-08-08T03:42:28.488Z,4.60
2022-08-08T03:44:38.418Z,2.33
2022-08-08T03:47:19.607Z,2.63
2022-08-08T03:49:59.805Z,4.87
2022-08-08T03:52:33.724Z,2.90
2022-08-08T03:55:20.452Z,2.53
2022-08-08T03:58:29.955Z,2.80
2022-08-08T04:01:01.998Z,3.17
2022-08-08T04:03:57.432Z,3.40
2022-08-08T04:06:29.564Z,2.93
2022-08-08T04:09:10.389Z,3.07
2022-08-08T04:11:58.273Z,3.97
2022-08-08T04:14:33.945Z,6.00
2022-08-08T04:17:15.451Z,18.03
2022-08-08T04:19:44.401Z,8.30
2022-08-08T04:22:16.609Z,11.47
2022-08-08T04:24:48.665Z,7.47
2022-08-08T04:28:01.408Z,7.60
2022-08-08T04:30:18.271Z,9.33
2022-08-08T04:32:50.106Z,6.33
2022-08-08T04:35:20.323Z,4.53
2022-08-08T04:37:52.733Z,3.77
2022-08-08T04:40:24.151Z,6.10
2022-08-08T04:42:57.951Z,4.90
2022-08-08T04:45:29.742Z,3.63
2022-08-08T04:48:00.591Z,2.80
2022-08-08T04:50:37.844Z,2.73
2022-08-08T04:53:14.083Z,3.40
2022-08-08T04:55:56.991Z,3.10
2022-08-08T04:58:27.075Z,3.10
2022-08-08T05:00:56.197Z,5.27
2022-08-08T05:04:10.100Z,4.57
2022-08-08T05:06:25.200Z,2.63
2022-08-08T05:08:54.587Z,2.30
2022-08-08T05:11:25.979Z,2.80
2022-08-08T05:14:01.113Z,4.43
2022-08-08T05:16:52.485Z,1.80
2022-08-08T05:20:10.666Z,2.07
2022-08-08T05:22:10.215Z,3.50
2022-08-08T05:24:39.027Z,2.30
2022-08-08T05:27:09.326Z,3.40
2022-08-08T05:29:40.895Z,2.53
2022-08-08T05:32:12.626Z,3.00
2022-08-08T05:34:44.432Z,3.30
2022-08-08T05:37:19.033Z,2.10
2022-08-08T05:39:53.211Z,3.27
2022-08-08T05:42:25.560Z,4.27
2022-08-08T05:45:00.714Z,6.23
2022-08-08T05:47:52.901Z,3.07
2022-08-08T05:50:30.197Z,3.33
2022-08-08T05:53:55.226Z,3.80
2022-08-08T05:56:10.655Z,2.73
2022-08-08T05:58:53.853Z,2.03
2022-08-08T06:01:52.748Z,4.43
2022-08-08T06:04:24.428Z,3.03
2022-08-08T06:07:01.918Z,3.13
2022-08-08T06:09:58.256Z,3.40
2022-08-08T06:12:29.926Z,3.67
2022-08-08T06:15:02.779Z,3.33
2022-08-08T06:17:50.912Z,2.90
2022-08-08T06:20:25.938Z,2.87
2022-08-08T06:22:56.234Z,5.47
2022-08-08T06:25:58.866Z,4.60
2022-08-08T06:28:20.392Z,3.13
2022-08-08T06:31:01.081Z,2.70
2022-08-08T06:34:26.754Z,2.37
2022-08-08T06:36:32.492Z,2.47
2022-08-08T06:39:06.772Z,3.20
2022-08-08T06:41:42.381Z,2.10
2022-08-08T06:44:25.016Z,2.20
2022-08-08T06:46:53.993Z,3.63
2022-08-08T06:49:55.912Z,1.90
2022-08-08T06:52:16.015Z,1.70
2022-08-08T06:54:48.890Z,2.60
2022-08-08T06:57:29.051Z,3.20
2022-08-08T07:00:10.291Z,1.83
2022-08-08T07:02:45.113Z,4.27
2022-08-08T07:05:20.109Z,3.17
2022-08-08T07:08:03.132Z,2.60
2022-08-08T07:10:37.803Z,1.70
2022-08-08T07:13:08.521Z,3.70
2022-08-08T07:16:04.994Z,1.67
2022-08-08T07:18:42.416Z,4.33
2022-08-08T07:21:20.284Z,1.97
2022-08-08T07:24:01.768Z,3.10
2022-08-08T07:26:36.354Z,3.60
2022-08-08T07:29:11.355Z,1.37
2022-08-08T07:31:42.065Z,1.30
2022-08-08T07:34:20.507Z,4.47
2022-08-08T07:37:11.570Z,1.00
2022-08-08T07:39:45.709Z,1.37
2022-08-08T07:42:33.440Z,4.30
2022-08-08T07:45:03.046Z,2.20
2022-08-08T07:47:38.913Z,2.17
2022-08-08T07:50:08.550Z,1.73
2022-08-08T07:52:43.486Z,1.37
2022-08-08T07:55:19.320Z,2.27
2022-08-08T07:57:54.641Z,1.93
2022-08-08T08:00:25.840Z,1.23
2022-08-08T08:03:04.731Z,1.30
2022-08-08T08:05:38.156Z,3.03
2022-08-08T08:08:18.943Z,1.77
2022-08-08T08:10:52.861Z,1.97
2022-08-08T08:13:42.958Z,2.53
2022-08-08T08:16:23.462Z,2.97
2022-08-08T08:18:56.614Z,2.40
2022-08-08T08:21:44.071Z,1.17
2022-08-08T08:24:18.487Z,2.97
2022-08-08T08:26:52.849Z,1.60
2022-08-08T08:29:24.365Z,1.63
2022-08-08T08:31:59.307Z,1.80
2022-08-08T08:34:34.255Z,0.90
2022-08-08T08:37:07.634Z,0.87
2022-08-08T08:40:01.283Z,1.67
2022-08-08T08:42:31.593Z,1.27
2022-08-08T08:45:21.736Z,1.93
2022-08-08T08:47:54.932Z,0.97
2022-08-08T08:50:33.258Z,1.00
2022-08-08T08:53:54.773Z,5.80
2022-08-08T08:56:02.178Z,3.63
2022-08-08T08:58:37.753Z,1.70
2022-08-08T09:01:09.715Z,0.77
2022-08-08T09:03:45.700Z,1.60
2022-08-08T09:06:28.839Z,1.40
2022-08-08T09:09:07.410Z,2.60
2022-08-08T09:12:01.234Z,1.40
2022-08-08T09:14:30.974Z,1.37
2022-08-08T09:17:11.449Z,1.77
2022-08-08T09:22:01.961Z,1.10
2022-08-08T09:22:31.743Z,1.00
2022-08-08T09:25:00.430Z,1.20
2022-08-08T09:27:55.677Z,2.53
2022-08-08T09:30:20.262Z,1.00
2022-08-08T09:33:54.047Z,1.60
2022-08-08T09:35:50.141Z,1.33
2022-08-08T09:38:32.991Z,1.10
2022-08-08T09:41:07.472Z,1.53
2022-08-08T09:44:05.386Z,0.83
2022-08-08T09:46:38.757Z,1.20
2022-08-08T09:49:41.219Z,0.97
2022-08-08T09:52:06.153Z,2.30
2022-08-08T09:54:44.977Z,0.80
2022-08-08T09:57:19.563Z,1.53
2022-08-08T10:00:31.652Z,3.70
2022-08-08T10:02:54.170Z,1.40
2022-08-08T10:05:26.320Z,1.33
2022-08-08T10:08:01.312Z,1.07
2022-08-08T10:10:34.130Z,2.43
2022-08-08T10:13:26.082Z,2.57
2022-08-08T10:16:03.440Z,1.13
2022-08-08T10:18:33.788Z,1.87
2022-08-08T10:21:22.640Z,1.83
2022-08-08T10:23:57.744Z,1.07
2022-08-08T10:26:52.358Z,1.07
2022-08-08T10:29:28.132Z,1.37
2022-08-08T10:32:17.616Z,0.80
2022-08-08T10:35:00.319Z,1.73
2022-08-08T10:37:30.959Z,1.63
2022-08-08T10:40:07.067Z,0.83
2022-08-08T10:42:37.714Z,1.50
2022-08-08T10:45:16.142Z,2.63
2022-08-08T10:47:55.465Z,1.00
2022-08-08T10:50:31.846Z,1.40
2022-08-08T10:53:04.883Z,2.03
2022-08-08T10:55:40.781Z,0.77
2022-08-08T10:58:12.565Z,3.17
2022-08-08T11:00:53.250Z,2.87
2022-08-08T11:04:00.774Z,1.60
2022-08-08T11:06:34.508Z,1.33
2022-08-08T11:09:15.440Z,3.53
2022-08-08T11:12:06.190Z,2.73
2022-08-08T11:14:50.069Z,7.40
2022-08-08T11:18:00.147Z,0.83
2022-08-08T11:20:18.173Z,2.50
2022-08-08T11:22:51.795Z,2.30
2022-08-08T11:25:53.449Z,1.83
2022-08-08T11:28:14.796Z,1.43
2022-08-08T11:30:50.092Z,3.77
2022-08-08T11:33:52.471Z,0.83
2022-08-08T11:36:29.407Z,0.60
2022-08-08T11:38:58.586Z,2.80
2022-08-08T11:41:32.529Z,1.97
2022-08-08T11:44:03.945Z,0.97
2022-08-08T11:46:35.371Z,1.47
2022-08-08T11:49:09.641Z,2.87
2022-08-08T11:51:50.066Z,3.37
2022-08-08T11:54:33.609Z,1.67
2022-08-08T11:57:13.865Z,1.57
2022-08-08T12:00:00.377Z,4.40
2022-08-08T12:02:33.883Z,1.53
2022-08-08T12:05:06.726Z,1.00
2022-08-08T12:07:50.299Z,3.40
2022-08-08T12:10:22.458Z,2.70
2022-08-08T12:12:54.677Z,2.07
2022-08-08T12:15:29.006Z,5.00
2022-08-08T12:17:57.596Z,2.40
2022-08-08T12:20:39.518Z,2.77
2022-08-08T12:23:13.814Z,3.07
2022-08-08T12:25:56.775Z,1.63
2022-08-08T12:28:25.533Z,2.17
2022-08-08T12:30:54.337Z,2.37
2022-08-08T12:33:37.182Z,1.43
2022-08-08T12:36:12.729Z,6.30
2022-08-08T12:38:55.291Z,2.70
2022-08-08T12:41:35.334Z,1.87
2022-08-08T12:44:32.044Z,1.00
2022-08-08T12:47:02.886Z,2.60
2022-08-08T12:49:43.494Z,2.20
2022-08-08T12:52:28.686Z,2.80
2022-08-08T12:55:14.263Z,1.17
2022-08-08T12:57:57.641Z,2.73
2022-08-08T13:00:33.754Z,3.50
2022-08-08T13:03:07.733Z,2.03
2022-08-08T13:06:05.604Z,2.33
2022-08-08T13:08:33.427Z,2.90
2022-08-08T13:11:19.094Z,3.73
2022-08-08T13:13:53.734Z,1.60
2022-08-08T13:16:26.430Z,2.23
2022-08-08T13:19:07.914Z,3.23
2022-08-08T13:22:05.041Z,7.67
2022-08-08T13:24:45.088Z,2.60
2022-08-08T13:27:20.616Z,2.10
2022-08-08T13:29:52.901Z,1.80
2022-08-08T13:32:23.866Z,2.60
2022-08-08T13:34:55.551Z,2.40
2022-08-08T13:37:51.896Z,2.53
2022-08-08T13:40:18.114Z,1.70
2022-08-08T13:42:58.431Z,3.43
2022-08-08T13:45:27.654Z,5.37
2022-08-08T13:48:00.082Z,3.70
2022-08-08T13:50:39.506Z,2.30
2022-08-08T13:53:31.606Z,2.93
2022-08-08T13:56:11.708Z,2.30
2022-08-08T13:58:57.914Z,2.90
2022-08-08T14:01:41.656Z,1.83
2022-08-08T14:04:24.266Z,2.30
2022-08-08T14:06:59.817Z,1.73
2022-08-08T14:10:02.863Z,2.37
2022-08-08T14:12:28.461Z,2.30
2022-08-08T14:14:59.025Z,3.90
2022-08-08T14:17:58.459Z,1.10
2022-08-08T14:20:57.632Z,1.33
2022-08-08T14:23:10.566Z,1.80
2022-08-08T14:25:53.937Z,1.57
2022-08-08T14:28:28.884Z,2.67
2022-08-08T14:31:09.274Z,1.27
2022-08-08T14:33:39.385Z,1.10
2022-08-08T14:36:13.344Z,0.73
2022-08-08T14:38:52.682Z,1.80
2022-08-08T14:41:53.923Z,3.17
2022-08-08T14:44:21.167Z,2.93
2022-08-08T14:47:01.473Z,0.83
2022-08-08T14:49:37.968Z,3.37
2022-08-08T14:52:24.558Z,0.80
2022-08-08T14:54:53.065Z,1.07
2022-08-08T14:58:00.956Z,1.00
2022-08-08T15:00:11.995Z,2.53
2022-08-08T15:02:58.596Z,1.37
2022-08-08T15:05:52.309Z,2.50
2022-08-08T15:08:34.565Z,2.50
2022-08-08T15:11:09.493Z,2.83
2022-08-08T15:14:02.053Z,2.67
2022-08-08T15:16:34.594Z,1.97
2022-08-08T15:19:05.714Z,0.83
2022-08-08T15:21:42.596Z,0.80
2022-08-08T15:24:12.828Z,1.80
2022-08-08T15:26:52.354Z,2.10
2022-08-08T15:29:22.677Z,1.30
2022-08-08T15:32:17.434Z,1.70
2022-08-08T15:34:43.793Z,2.07
2022-08-08T15:37:13.719Z,1.60
2022-08-08T15:39:42.537Z,0.80
2022-08-08T15:42:18.050Z,3.60
2022-08-08T15:45:02.293Z,2.90
2022-08-08T15:47:31.965Z,1.13
2022-08-08T15:50:02.341Z,0.90
2022-08-08T15:52:31.425Z,0.67
2022-08-08T15:55:02.109Z,1.00
2022-08-08T15:57:35.768Z,2.30
2022-08-08T16:00:26.922Z,1.60
2022-08-08T16:02:57.894Z,2.43
2022-08-08T16:05:35.711Z,5.77
2022-08-08T16:08:14.820Z,2.27
2022-08-08T16:13:09.905Z,4.07
2022-08-08T16:13:45.287Z,1.60
2022-08-08T16:16:17.820Z,1.10
2022-08-08T16:18:56.175Z,1.90
2022-08-08T16:21:31.621Z,2.13
2022-08-08T16:24:02.445Z,0.80
2022-08-08T16:26:35.914Z,2.70
2022-08-08T16:29:08.019Z,1.10
2022-08-08T16:31:41.012Z,3.67
2022-08-08T16:34:10.643Z,0.80
2022-08-08T16:36:41.862Z,2.30
2022-08-08T16:39:17.006Z,3.07
2022-08-08T16:42:04.011Z,0.83
2022-08-08T16:44:34.487Z,3.40
2022-08-08T16:47:22.031Z,5.00
2022-08-08T16:50:13.719Z,2.83
2022-08-08T16:55:02.367Z,2.80
2022-08-08T16:55:55.417Z,1.50
2022-08-08T16:58:25.497Z,1.90
2022-08-08T17:00:55.393Z,2.60
2022-08-08T17:03:59.078Z,4.70
2022-08-08T17:06:39.940Z,1.77
2022-08-08T17:09:05.126Z,2.57
2022-08-08T17:11:39.567Z,2.57
2022-08-08T17:14:19.578Z,2.97
2022-08-08T17:16:57.122Z,2.83
2022-08-08T17:19:26.438Z,3.13
2022-08-08T17:21:55.455Z,4.07
2022-08-08T17:24:27.745Z,3.73
2022-08-08T17:26:58.793Z,1.63
2022-08-08T17:29:27.843Z,4.57
2022-08-08T17:31:57.583Z,5.37
2022-08-08T17:34:49.252Z,12.80
2022-08-08T17:37:15.705Z,11.63
2022-08-08T17:40:08.879Z,9.67
2022-08-08T17:42:38.370Z,10.93
2022-08-08T17:45:21.108Z,11.63
2022-08-08T17:47:51.523Z,5.27
2022-08-08T17:50:20.200Z,5.27
2022-08-08T17:52:48.786Z,9.73
2022-08-08T17:56:05.691Z,8.03
2022-08-08T17:58:07.450Z,6.97
2022-08-08T18:00:41.022Z,7.23
2022-08-08T18:03:13.401Z,4.57
2022-08-08T18:05:44.077Z,6.27
2022-08-08T18:08:24.484Z,3.97
2022-08-08T18:11:11.579Z,8.83
2022-08-08T18:13:42.021Z,4.50
2022-08-08T18:16:11.563Z,5.30
2022-08-08T18:18:45.613Z,2.97
2022-08-08T18:21:58.804Z,5.30
2022-08-08T18:24:19.041Z,12.73
2022-08-08T18:26:55.905Z,6.37
2022-08-08T18:29:33.259Z,7.57
2022-08-08T18:32:04.645Z,4.03
2022-08-08T18:34:36.487Z,3.70
2022-08-08T18:37:08.346Z,3.40
2022-08-08T18:39:41.335Z,2.13
2022-08-08T18:42:17.865Z,2.53
2022-08-08T18:44:55.483Z,7.40
2022-08-08T18:47:27.922Z,17.63
2022-08-08T18:49:59.975Z,14.07
2022-08-08T18:52:30.460Z,12.73
2022-08-08T18:55:09.529Z,8.73
2022-08-08T18:57:45.067Z,8.27
2022-08-08T19:00:19.852Z,5.63
2022-08-08T19:02:55.687Z,4.77
2022-08-08T19:05:30.125Z,7.00
2022-08-08T19:08:01.096Z,5.80
2022-08-08T19:10:31.423Z,5.83
2022-08-08T19:13:01.294Z,455.77
2022-08-08T19:15:33.784Z,704.90
2022-08-08T19:18:31.904Z,180.70
2022-08-08T19:20:52.176Z,58.67
2022-08-08T19:23:21.741Z,7.30
2022-08-08T19:26:19.637Z,5.07
2022-08-08T19:28:43.120Z,6.43
2022-08-08T19:31:17.036Z,6.60
2022-08-08T19:34:04.867Z,6.43
2022-08-08T19:36:35.388Z,4.73
2022-08-08T19:39:04.241Z,6.13
2022-08-08T19:41:35.486Z,6.83
2022-08-08T19:44:13.251Z,9.03
2022-08-08T19:46:54.625Z,5.37
2022-08-08T19:49:25.893Z,9.07
2022-08-08T19:51:54.579Z,14.23
2022-08-08T19:54:24.332Z,5.10
2022-08-08T19:56:53.102Z,10.53
2022-08-08T19:59:23.609Z,8.03
2022-08-08T20:02:03.149Z,7.60
2022-08-08T20:04:33.146Z,2.57
2022-08-08T20:07:03.638Z,4.97
2022-08-08T20:09:56.372Z,10.63
2022-08-08T20:12:32.600Z,22.43
2022-08-08T20:15:14.986Z,20.13
2022-08-08T20:17:47.073Z,36.97
2022-08-08T20:20:19.597Z,36.00
2022-08-08T20:22:53.753Z,32.43
2022-08-08T20:25:24.828Z,21.57
2022-08-08T20:28:02.253Z,23.47
2022-08-08T20:30:55.643Z,20.03
2022-08-08T20:35:57.533Z,26.53
2022-08-08T20:38:32.769Z,18.80
2022-08-08T20:41:15.370Z,40.13
2022-08-08T20:43:48.236Z,36.37
2022-08-08T20:46:25.320Z,24.53
2022-08-08T20:48:58.469Z,19.97
2022-08-08T20:51:31.598Z,13.10
2022-08-08T20:54:09.495Z,24.00
2022-08-08T20:57:04.420Z,28.50
2022-08-08T20:59:32.623Z,10.80
2022-08-08T21:02:16.429Z,12.70
2022-08-08T21:05:00.521Z,19.57
2022-08-08T21:08:33.859Z,15.93
2022-08-08T21:10:21.314Z,20.83
2022-08-08T21:12:56.806Z,65.53
2022-08-08T21:16:05.266Z,26.77
2022-08-08T21:18:15.973Z,20.37
2022-08-08T21:20:50.961Z,27.27
2022-08-08T21:23:19.661Z,34.67
2022-08-08T21:25:55.165Z,93.60
2022-08-08T21:28:35.570Z,102.83
2022-08-08T21:31:23.215Z,38.00
2022-08-08T21:33:54.525Z,58.23
2022-08-08T21:36:28.889Z,102.80
2022-08-08T21:38:58.154Z,47.00
2022-08-08T21:41:28.817Z,56.80
2022-08-08T21:44:11.339Z,58.87
2022-08-08T21:48:08.718Z,29.63
2022-08-08T21:49:32.416Z,39.20
2022-08-08T21:54:32.314Z,66.87
2022-08-08T21:54:54.248Z,136.33
2022-08-08T21:57:42.568Z,60.57
2022-08-08T22:00:26.113Z,28.97
2022-08-08T22:02:55.199Z,71.73
2022-08-08T22:05:25.261Z,138.93
2022-08-08T22:08:00.207Z,26.73
2022-08-08T22:10:32.319Z,25.43
2022-08-08T22:13:18.505Z,24.27
2022-08-08T22:15:59.136Z,41.50
2022-08-08T22:18:31.033Z,82.07
2022-08-08T22:21:13.850Z,43.20
2022-08-08T22:23:50.923Z,29.83
2022-08-08T22:26:28.806Z,28.33
2022-08-08T22:29:14.679Z,40.90
2022-08-08T22:32:01.526Z,71.90
2022-08-08T22:34:33.101Z,55.87
2022-08-08T22:37:14.891Z,58.30
2022-08-08T22:40:01.267Z,31.53
2022-08-08T22:42:34.294Z,37.07
2022-08-08T22:45:03.452Z,74.97
2022-08-08T22:47:38.070Z,74.47
2022-08-08T22:50:26.322Z,47.67
2022-08-08T22:54:31.157Z,25.80
2022-08-08T22:55:59.752Z,37.07
2022-08-08T22:58:32.807Z,39.60
2022-08-08T23:01:02.216Z,50.97
2022-08-08T23:03:54.466Z,78.43
2022-08-08T23:06:24.374Z,41.43
2022-08-08T23:09:00.015Z,19.20
2022-08-08T23:12:17.971Z,159.97
2022-08-08T23:14:19.279Z,307.27
2022-08-08T23:16:57.831Z,48.23
2022-08-08T23:19:31.034Z,58.83
2022-08-08T23:22:04.780Z,29.37
2022-08-08T23:24:36.105Z,29.37
2022-08-08T23:27:07.203Z,18.23
2022-08-08T23:29:36.613Z,25.93
2022-08-08T23:32:10.408Z,15.13
2022-08-08T23:34:39.917Z,232.93
2022-08-08T23:37:18.199Z,82.40
2022-08-08T23:39:55.178Z,51.90
2022-08-08T23:42:24.114Z,20.50
2022-08-08T23:44:54.066Z,118.43
2022-08-08T23:49:01.117Z,23.53
2022-08-08T23:50:30.268Z,43.57
2022-08-08T23:53:03.455Z,62.27
2022-08-08T23:55:38.255Z,54.37
2022-08-08T23:58:11.917Z,50.57
